Applegate, Oregon
Current Conditions -  °F | °C
As of 10:53 PM on Thursday 18 Dec 2014 (Local Time) from KMFR Reporting Station
Light Rain Light Rain  
Wind Chill: 51°   Ceiling: 5500
Heat Index: 51°   Visibility: 10mi
Dew Point: 41°   Wind: 8mph
Humidity: 68%   Direction: 170°S
Pressure: 29.94"   Gusts: NA
Location:  42.1499°N, 123.043°W
Report Text: KMFR 190653Z AUTO 17007KT 10SM -RA SCT040 OVC055 11/05 A2994 RMK AO2 PK WND 14028/0625 SLP140 P0002 T01060050
Loading
Personal Weather Stations






























Interactive Weather Map New forecast layout! Learn more

10-Day Weather Forecast

Advertisements
Track Severe Weather on mobile